sensor_id;sensor_type;location;lat;lon;timestamp;temperature;humidity
44190;DHT22;29856;52.144;5.430;2022-10-31T00:00:46;14.00;99.90
44190;DHT22;29856;52.144;5.430;2022-10-31T00:03:11;14.00;99.90
44190;DHT22;29856;52.144;5.430;2022-10-31T00:05:44;14.00;99.90
44190;DHT22;29856;52.144;5.430;2022-10-31T00:08:10;13.90;99.90
44190;DHT22;29856;52.144;5.430;2022-10-31T00:10:39;13.90;99.90
44190;DHT22;29856;52.144;5.430;2022-10-31T00:13:06;13.90;99.90
44190;DHT22;29856;52.144;5.430;2022-10-31T00:15:33;13.90;99.90
44190;DHT22;29856;52.144;5.430;2022-10-31T00:17:59;13.90;99.90
44190;DHT22;29856;52.144;5.430;2022-10-31T00:20:24;13.90;99.90
44190;DHT22;29856;52.144;5.430;2022-10-31T00:22:50;13.90;99.90
44190;DHT22;29856;52.144;5.430;2022-10-31T00:25:15;14.00;99.90
44190;DHT22;29856;52.144;5.430;2022-10-31T00:27:41;13.90;99.90
44190;DHT22;29856;52.144;5.430;2022-10-31T00:30:06;13.90;99.90
44190;DHT22;29856;52.144;5.430;2022-10-31T00:32:32;13.90;99.90
44190;DHT22;29856;52.144;5.430;2022-10-31T00:34:57;13.80;99.90
44190;DHT22;29856;52.144;5.430;2022-10-31T00:37:23;13.80;99.90
44190;DHT22;29856;52.144;5.430;2022-10-31T00:39:48;13.80;99.90
44190;DHT22;29856;52.144;5.430;2022-10-31T00:42:14;13.80;99.90
44190;DHT22;29856;52.144;5.430;2022-10-31T00:44:39;13.80;99.90
44190;DHT22;29856;52.144;5.430;2022-10-31T00:47:05;13.80;99.90
44190;DHT22;29856;52.144;5.430;2022-10-31T00:49:30;13.80;99.90
44190;DHT22;29856;52.144;5.430;2022-10-31T00:51:55;13.80;99.90
44190;DHT22;29856;52.144;5.430;2022-10-31T00:54:21;13.70;99.90
44190;DHT22;29856;52.144;5.430;2022-10-31T00:56:46;13.70;99.90
44190;DHT22;29856;52.144;5.430;2022-10-31T00:59:12;13.70;99.90
44190;DHT22;29856;52.144;5.430;2022-10-31T01:01:37;13.70;99.90
44190;DHT22;29856;52.144;5.430;2022-10-31T01:04:03;13.70;99.90
44190;DHT22;29856;52.144;5.430;2022-10-31T01:06:28;13.70;99.90
44190;DHT22;29856;52.144;5.430;2022-10-31T01:08:54;13.70;99.90
44190;DHT22;29856;52.144;5.430;2022-10-31T01:11:21;13.60;99.90
44190;DHT22;29856;52.144;5.430;2022-10-31T01:13:49;13.60;99.90
44190;DHT22;29856;52.144;5.430;2022-10-31T01:16:18;13.60;99.90
44190;DHT22;29856;52.144;5.430;2022-10-31T01:18:44;13.60;99.90
44190;DHT22;29856;52.144;5.430;2022-10-31T01:21:12;13.50;99.90
44190;DHT22;29856;52.144;5.430;2022-10-31T01:23:38;13.50;99.90
44190;DHT22;29856;52.144;5.430;2022-10-31T01:26:13;13.50;99.90
44190;DHT22;29856;52.144;5.430;2022-10-31T01:28:53;13.40;99.90
44190;DHT22;29856;52.144;5.430;2022-10-31T01:31:20;13.30;99.90
44190;DHT22;29856;52.144;5.430;2022-10-31T01:33:46;13.30;99.90
44190;DHT22;29856;52.144;5.430;2022-10-31T01:36:21;13.20;99.90
44190;DHT22;29856;52.144;5.430;2022-10-31T01:38:47;13.10;99.90
44190;DHT22;29856;52.144;5.430;2022-10-31T01:41:16;13.10;99.90
44190;DHT22;29856;52.144;5.430;2022-10-31T01:43:54;13.10;99.90
44190;DHT22;29856;52.144;5.430;2022-10-31T01:46:33;13.10;99.90
44190;DHT22;29856;52.144;5.430;2022-10-31T01:49:01;13.10;99.90
44190;DHT22;29856;52.144;5.430;2022-10-31T01:51:31;13.10;99.90
44190;DHT22;29856;52.144;5.430;2022-10-31T01:54:02;13.00;99.90
44190;DHT22;29856;52.144;5.430;2022-10-31T01:56:30;13.00;99.90
44190;DHT22;29856;52.144;5.430;2022-10-31T01:58:57;13.00;99.90
44190;DHT22;29856;52.144;5.430;2022-10-31T02:01:24;12.90;99.90
44190;DHT22;29856;52.144;5.430;2022-10-31T02:03:50;12.90;99.90
44190;DHT22;29856;52.144;5.430;2022-10-31T02:09:00;12.80;99.90
44190;DHT22;29856;52.144;5.430;2022-10-31T02:11:28;12.60;99.90
44190;DHT22;29856;52.144;5.430;2022-10-31T02:13:54;12.50;99.90
44190;DHT22;29856;52.144;5.430;2022-10-31T02:16:20;12.50;99.90
44190;DHT22;29856;52.144;5.430;2022-10-31T02:18:46;12.50;99.90
44190;DHT22;29856;52.144;5.430;2022-10-31T02:21:25;12.50;99.90
44190;DHT22;29856;52.144;5.430;2022-10-31T02:27:39;12.50;99.90
44190;DHT22;29856;52.144;5.430;2022-10-31T02:30:18;12.40;99.90
44190;DHT22;29856;52.144;5.430;2022-10-31T02:33:04;12.30;99.90
44190;DHT22;29856;52.144;5.430;2022-10-31T02:38:56;12.30;99.90
44190;DHT22;29856;52.144;5.430;2022-10-31T02:41:37;12.30;99.90
44190;DHT22;29856;52.144;5.430;2022-10-31T02:47:11;12.20;99.90
44190;DHT22;29856;52.144;5.430;2022-10-31T02:49:48;12.10;99.90
44190;DHT22;29856;52.144;5.430;2022-10-31T02:52:25;12.10;99.90
44190;DHT22;29856;52.144;5.430;2022-10-31T02:54:51;12.00;99.90
44190;DHT22;29856;52.144;5.430;2022-10-31T02:57:24;12.00;99.90
44190;DHT22;29856;52.144;5.430;2022-10-31T02:59:54;12.00;99.90
44190;DHT22;29856;52.144;5.430;2022-10-31T03:02:24;12.00;99.90
44190;DHT22;29856;52.144;5.430;2022-10-31T03:07:46;11.90;99.90
44190;DHT22;29856;52.144;5.430;2022-10-31T03:10:48;11.90;99.90
44190;DHT22;29856;52.144;5.430;2022-10-31T03:16:16;11.90;99.90
44190;DHT22;29856;52.144;5.430;2022-10-31T03:18:49;11.90;99.90
44190;DHT22;29856;52.144;5.430;2022-10-31T03:21:32;11.90;99.90
44190;DHT22;29856;52.144;5.430;2022-10-31T03:24:01;11.90;99.90
44190;DHT22;29856;52.144;5.430;2022-10-31T03:26:27;11.80;99.90
44190;DHT22;29856;52.144;5.430;2022-10-31T03:28:54;11.90;99.90
44190;DHT22;29856;52.144;5.430;2022-10-31T03:31:26;11.80;99.90
44190;DHT22;29856;52.144;5.430;2022-10-31T03:33:56;11.80;99.90
44190;DHT22;29856;52.144;5.430;2022-10-31T03:36:23;11.80;99.90
44190;DHT22;29856;52.144;5.430;2022-10-31T03:38:51;11.70;99.90
44190;DHT22;29856;52.144;5.430;2022-10-31T03:41:23;11.70;99.90
44190;DHT22;29856;52.144;5.430;2022-10-31T03:43:55;11.70;99.90
44190;DHT22;29856;52.144;5.430;2022-10-31T03:46:22;11.70;99.90
44190;DHT22;29856;52.144;5.430;2022-10-31T03:48:49;11.70;99.90
44190;DHT22;29856;52.144;5.430;2022-10-31T03:56:36;11.60;99.90
44190;DHT22;29856;52.144;5.430;2022-10-31T03:59:07;11.60;99.90
44190;DHT22;29856;52.144;5.430;2022-10-31T04:01:38;11.60;99.90
44190;DHT22;29856;52.144;5.430;2022-10-31T04:04:05;11.50;99.90
44190;DHT22;29856;52.144;5.430;2022-10-31T04:06:31;11.60;99.90
44190;DHT22;29856;52.144;5.430;2022-10-31T04:09:02;11.50;99.90
44190;DHT22;29856;52.144;5.430;2022-10-31T04:11:35;11.50;99.90
44190;DHT22;29856;52.144;5.430;2022-10-31T04:14:02;11.50;99.90
44190;DHT22;29856;52.144;5.430;2022-10-31T04:16:29;11.50;99.90
44190;DHT22;29856;52.144;5.430;2022-10-31T04:18:55;11.50;99.90
44190;DHT22;29856;52.144;5.430;2022-10-31T04:21:27;11.60;99.90
44190;DHT22;29856;52.144;5.430;2022-10-31T04:23:52;11.50;99.90
44190;DHT22;29856;52.144;5.430;2022-10-31T04:26:17;11.40;99.90
44190;DHT22;29856;52.144;5.430;2022-10-31T04:28:43;11.20;99.90
44190;DHT22;29856;52.144;5.430;2022-10-31T04:31:11;11.20;99.90
44190;DHT22;29856;52.144;5.430;2022-10-31T04:33:36;11.10;99.90
44190;DHT22;29856;52.144;5.430;2022-10-31T04:36:02;11.00;99.90
44190;DHT22;29856;52.144;5.430;2022-10-31T04:38:27;11.00;99.90
44190;DHT22;29856;52.144;5.430;2022-10-31T04:40:53;10.90;99.90
44190;DHT22;29856;52.144;5.430;2022-10-31T04:43:18;10.90;99.90
44190;DHT22;29856;52.144;5.430;2022-10-31T04:45:44;10.90;99.90
44190;DHT22;29856;52.144;5.430;2022-10-31T04:48:09;10.80;99.90
44190;DHT22;29856;52.144;5.430;2022-10-31T04:50:35;10.80;99.90
44190;DHT22;29856;52.144;5.430;2022-10-31T04:53:00;10.80;99.90
44190;DHT22;29856;52.144;5.430;2022-10-31T04:55:25;10.70;99.90
44190;DHT22;29856;52.144;5.430;2022-10-31T04:57:51;10.70;99.90
44190;DHT22;29856;52.144;5.430;2022-10-31T05:00:19;10.70;99.90
44190;DHT22;29856;52.144;5.430;2022-10-31T05:02:45;10.70;99.90
44190;DHT22;29856;52.144;5.430;2022-10-31T05:05:12;10.70;99.90
44190;DHT22;29856;52.144;5.430;2022-10-31T05:07:46;10.80;99.90
44190;DHT22;29856;52.144;5.430;2022-10-31T05:10:14;10.80;99.90
44190;DHT22;29856;52.144;5.430;2022-10-31T05:12:54;10.70;99.90
44190;DHT22;29856;52.144;5.430;2022-10-31T05:15:21;10.80;99.90
44190;DHT22;29856;52.144;5.430;2022-10-31T05:17:48;10.80;99.90
44190;DHT22;29856;52.144;5.430;2022-10-31T05:20:15;11.00;99.90
44190;DHT22;29856;52.144;5.430;2022-10-31T05:22:49;11.00;99.90
44190;DHT22;29856;52.144;5.430;2022-10-31T05:25:15;11.00;99.90
44190;DHT22;29856;52.144;5.430;2022-10-31T05:27:43;11.00;99.90
44190;DHT22;29856;52.144;5.430;2022-10-31T05:30:10;11.10;99.90
44190;DHT22;29856;52.144;5.430;2022-10-31T05:32:40;11.10;99.90
44190;DHT22;29856;52.144;5.430;2022-10-31T05:35:10;11.10;99.90
44190;DHT22;29856;52.144;5.430;2022-10-31T05:37:36;11.10;99.90
44190;DHT22;29856;52.144;5.430;2022-10-31T05:40:06;11.10;99.90
44190;DHT22;29856;52.144;5.430;2022-10-31T05:42:32;11.10;99.90
44190;DHT22;29856;52.144;5.430;2022-10-31T05:44:58;11.20;99.90
44190;DHT22;29856;52.144;5.430;2022-10-31T05:47:24;11.10;99.90
44190;DHT22;29856;52.144;5.430;2022-10-31T05:49:50;11.10;99.90
44190;DHT22;29856;52.144;5.430;2022-10-31T05:52:15;11.10;99.90
44190;DHT22;29856;52.144;5.430;2022-10-31T05:54:41;11.00;99.90
44190;DHT22;29856;52.144;5.430;2022-10-31T05:57:06;11.20;99.90
44190;DHT22;29856;52.144;5.430;2022-10-31T05:59:32;11.10;99.90
44190;DHT22;29856;52.144;5.430;2022-10-31T06:01:57;11.00;99.90
44190;DHT22;29856;52.144;5.430;2022-10-31T06:04:23;11.20;99.90
44190;DHT22;29856;52.144;5.430;2022-10-31T06:06:48;11.10;99.90
44190;DHT22;29856;52.144;5.430;2022-10-31T06:09:14;11.10;99.90
44190;DHT22;29856;52.144;5.430;2022-10-31T06:11:39;11.20;99.90
44190;DHT22;29856;52.144;5.430;2022-10-31T06:14:05;11.10;99.90
44190;DHT22;29856;52.144;5.430;2022-10-31T06:16:31;11.10;99.90
44190;DHT22;29856;52.144;5.430;2022-10-31T06:18:56;11.20;99.90
44190;DHT22;29856;52.144;5.430;2022-10-31T06:21:22;11.10;99.90
44190;DHT22;29856;52.144;5.430;2022-10-31T06:23:48;11.00;99.90
44190;DHT22;29856;52.144;5.430;2022-10-31T06:26:13;11.00;99.90
44190;DHT22;29856;52.144;5.430;2022-10-31T06:28:39;10.90;99.90
44190;DHT22;29856;52.144;5.430;2022-10-31T06:31:04;10.80;99.90
44190;DHT22;29856;52.144;5.430;2022-10-31T06:33:30;10.80;99.90
44190;DHT22;29856;52.144;5.430;2022-10-31T06:35:55;10.80;99.90
44190;DHT22;29856;52.144;5.430;2022-10-31T06:38:21;11.00;99.90
44190;DHT22;29856;52.144;5.430;2022-10-31T06:40:46;11.10;99.90
44190;DHT22;29856;52.144;5.430;2022-10-31T06:43:12;11.00;99.90
44190;DHT22;29856;52.144;5.430;2022-10-31T06:45:37;11.30;99.90
44190;DHT22;29856;52.144;5.430;2022-10-31T06:48:03;11.30;99.90
44190;DHT22;29856;52.144;5.430;2022-10-31T06:50:29;11.10;99.90
44190;DHT22;29856;52.144;5.430;2022-10-31T06:52:56;10.90;99.90
44190;DHT22;29856;52.144;5.430;2022-10-31T06:55:23;10.80;99.90
44190;DHT22;29856;52.144;5.430;2022-10-31T06:57:50;10.80;99.90
44190;DHT22;29856;52.144;5.430;2022-10-31T07:00:16;10.80;99.90
44190;DHT22;29856;52.144;5.430;2022-10-31T07:02:42;10.80;99.90
44190;DHT22;29856;52.144;5.430;2022-10-31T07:05:07;10.90;99.90
44190;DHT22;29856;52.144;5.430;2022-10-31T07:07:33;10.90;99.90
44190;DHT22;29856;52.144;5.430;2022-10-31T07:09:58;11.10;99.90
44190;DHT22;29856;52.144;5.430;2022-10-31T07:12:24;11.20;99.90
44190;DHT22;29856;52.144;5.430;2022-10-31T07:14:49;11.20;99.90
44190;DHT22;29856;52.144;5.430;2022-10-31T07:17:15;11.30;99.90
44190;DHT22;29856;52.144;5.430;2022-10-31T07:19:40;11.20;99.90
44190;DHT22;29856;52.144;5.430;2022-10-31T07:22:05;11.20;99.90
44190;DHT22;29856;52.144;5.430;2022-10-31T07:24:31;11.30;99.90
44190;DHT22;29856;52.144;5.430;2022-10-31T07:26:56;11.20;99.90
44190;DHT22;29856;52.144;5.430;2022-10-31T07:29:22;11.10;99.90
44190;DHT22;29856;52.144;5.430;2022-10-31T07:31:47;11.00;99.90
44190;DHT22;29856;52.144;5.430;2022-10-31T07:34:13;10.90;99.90
44190;DHT22;29856;52.144;5.430;2022-10-31T07:36:38;10.90;99.90
44190;DHT22;29856;52.144;5.430;2022-10-31T07:39:04;10.90;99.90
44190;DHT22;29856;52.144;5.430;2022-10-31T07:41:29;11.00;99.90
44190;DHT22;29856;52.144;5.430;2022-10-31T07:43:55;11.10;99.90
44190;DHT22;29856;52.144;5.430;2022-10-31T07:46:21;11.30;99.90
44190;DHT22;29856;52.144;5.430;2022-10-31T07:48:47;11.30;99.90
44190;DHT22;29856;52.144;5.430;2022-10-31T07:51:12;11.20;99.90
44190;DHT22;29856;52.144;5.430;2022-10-31T07:53:38;11.20;99.90
44190;DHT22;29856;52.144;5.430;2022-10-31T07:56:03;11.10;99.90
44190;DHT22;29856;52.144;5.430;2022-10-31T07:58:29;11.10;99.90
44190;DHT22;29856;52.144;5.430;2022-10-31T08:00:54;11.10;99.90
44190;DHT22;29856;52.144;5.430;2022-10-31T08:03:20;11.20;99.90
44190;DHT22;29856;52.144;5.430;2022-10-31T08:05:45;11.20;99.90
44190;DHT22;29856;52.144;5.430;2022-10-31T08:08:11;11.40;99.90
44190;DHT22;29856;52.144;5.430;2022-10-31T08:10:38;11.50;99.90
44190;DHT22;29856;52.144;5.430;2022-10-31T08:13:06;11.60;99.90
44190;DHT22;29856;52.144;5.430;2022-10-31T08:15:33;11.70;99.90
44190;DHT22;29856;52.144;5.430;2022-10-31T08:17:58;11.70;99.90
44190;DHT22;29856;52.144;5.430;2022-10-31T08:20:24;11.90;99.90
44190;DHT22;29856;52.144;5.430;2022-10-31T08:22:57;11.90;99.90
44190;DHT22;29856;52.144;5.430;2022-10-31T08:25:23;11.90;99.90
44190;DHT22;29856;52.144;5.430;2022-10-31T08:27:53;12.00;99.90
44190;DHT22;29856;52.144;5.430;2022-10-31T08:30:20;12.10;99.90
44190;DHT22;29856;52.144;5.430;2022-10-31T08:32:46;12.10;99.90
44190;DHT22;29856;52.144;5.430;2022-10-31T08:35:12;12.20;99.90
44190;DHT22;29856;52.144;5.430;2022-10-31T08:37:37;12.20;99.90
44190;DHT22;29856;52.144;5.430;2022-10-31T08:40:03;12.20;99.90
44190;DHT22;29856;52.144;5.430;2022-10-31T08:42:29;12.30;99.90
44190;DHT22;29856;52.144;5.430;2022-10-31T08:44:54;12.40;99.90
44190;DHT22;29856;52.144;5.430;2022-10-31T08:47:20;12.50;99.90
44190;DHT22;29856;52.144;5.430;2022-10-31T08:49:45;12.50;99.90
44190;DHT22;29856;52.144;5.430;2022-10-31T08:52:11;12.50;99.90
44190;DHT22;29856;52.144;5.430;2022-10-31T08:54:36;12.60;99.90
44190;DHT22;29856;52.144;5.430;2022-10-31T08:57:02;12.70;99.90
44190;DHT22;29856;52.144;5.430;2022-10-31T08:59:27;12.70;99.90
44190;DHT22;29856;52.144;5.430;2022-10-31T09:01:53;12.60;99.90
44190;DHT22;29856;52.144;5.430;2022-10-31T09:04:19;12.70;99.90
44190;DHT22;29856;52.144;5.430;2022-10-31T09:06:44;12.70;99.90
44190;DHT22;29856;52.144;5.430;2022-10-31T09:09:10;12.70;99.90
44190;DHT22;29856;52.144;5.430;2022-10-31T09:11:35;12.80;99.90
44190;DHT22;29856;52.144;5.430;2022-10-31T09:14:00;12.80;99.90
44190;DHT22;29856;52.144;5.430;2022-10-31T09:16:26;12.90;99.90
44190;DHT22;29856;52.144;5.430;2022-10-31T09:18:51;13.00;99.90
44190;DHT22;29856;52.144;5.430;2022-10-31T09:21:17;13.00;99.90
44190;DHT22;29856;52.144;5.430;2022-10-31T09:23:42;13.10;99.90
44190;DHT22;29856;52.144;5.430;2022-10-31T09:26:08;13.20;99.90
44190;DHT22;29856;52.144;5.430;2022-10-31T09:28:33;13.40;99.90
44190;DHT22;29856;52.144;5.430;2022-10-31T09:30:59;13.50;99.90
44190;DHT22;29856;52.144;5.430;2022-10-31T09:33:24;13.50;99.90
44190;DHT22;29856;52.144;5.430;2022-10-31T09:35:50;13.60;99.90
44190;DHT22;29856;52.144;5.430;2022-10-31T09:38:18;13.70;99.90
44190;DHT22;29856;52.144;5.430;2022-10-31T09:40:51;13.70;99.90
44190;DHT22;29856;52.144;5.430;2022-10-31T09:46:17;13.80;99.90
44190;DHT22;29856;52.144;5.430;2022-10-31T09:51:34;14.10;99.90
44190;DHT22;29856;52.144;5.430;2022-10-31T09:54:06;14.20;99.90
44190;DHT22;29856;52.144;5.430;2022-10-31T09:56:35;14.30;99.90
44190;DHT22;29856;52.144;5.430;2022-10-31T09:59:04;14.40;99.90
44190;DHT22;29856;52.144;5.430;2022-10-31T10:01:42;14.50;99.90
44190;DHT22;29856;52.144;5.430;2022-10-31T10:06:41;14.60;99.90
44190;DHT22;29856;52.144;5.430;2022-10-31T10:09:10;14.70;99.90
44190;DHT22;29856;52.144;5.430;2022-10-31T10:17:45;15.00;99.90
44190;DHT22;29856;52.144;5.430;2022-10-31T10:21:15;15.00;99.90
44190;DHT22;29856;52.144;5.430;2022-10-31T10:23:26;15.00;99.90
44190;DHT22;29856;52.144;5.430;2022-10-31T10:26:34;15.20;99.90
44190;DHT22;29856;52.144;5.430;2022-10-31T10:28:57;15.20;99.90
44190;DHT22;29856;52.144;5.430;2022-10-31T10:31:28;15.30;99.90
44190;DHT22;29856;52.144;5.430;2022-10-31T10:34:07;15.30;99.90
44190;DHT22;29856;52.144;5.430;2022-10-31T10:36:42;15.40;99.90
44190;DHT22;29856;52.144;5.430;2022-10-31T10:39:25;15.40;99.90
44190;DHT22;29856;52.144;5.430;2022-10-31T10:41:52;15.50;99.90
44190;DHT22;29856;52.144;5.430;2022-10-31T10:44:18;15.60;99.90
44190;DHT22;29856;52.144;5.430;2022-10-31T10:46:49;15.60;99.90
44190;DHT22;29856;52.144;5.430;2022-10-31T10:49:28;15.70;99.90
44190;DHT22;29856;52.144;5.430;2022-10-31T10:52:20;15.70;99.90
44190;DHT22;29856;52.144;5.430;2022-10-31T10:57:26;15.80;99.90
44190;DHT22;29856;52.144;5.430;2022-10-31T10:59:52;15.80;99.90
44190;DHT22;29856;52.144;5.430;2022-10-31T11:02:31;15.90;99.90
44190;DHT22;29856;52.144;5.430;2022-10-31T11:04:58;15.90;99.90
44190;DHT22;29856;52.144;5.430;2022-10-31T11:07:25;16.00;99.90
44190;DHT22;29856;52.144;5.430;2022-10-31T11:09:51;16.00;99.90
44190;DHT22;29856;52.144;5.430;2022-10-31T11:12:32;16.00;99.90
44190;DHT22;29856;52.144;5.430;2022-10-31T11:15:02;16.10;99.90
44190;DHT22;29856;52.144;5.430;2022-10-31T11:17:36;16.10;99.90
44190;DHT22;29856;52.144;5.430;2022-10-31T11:22:38;16.10;99.90
44190;DHT22;29856;52.144;5.430;2022-10-31T11:27:44;16.30;99.90
44190;DHT22;29856;52.144;5.430;2022-10-31T11:30:13;16.40;99.90
44190;DHT22;29856;52.144;5.430;2022-10-31T11:32:49;16.50;99.90
44190;DHT22;29856;52.144;5.430;2022-10-31T11:35:15;16.60;99.90
44190;DHT22;29856;52.144;5.430;2022-10-31T11:37:44;16.60;99.90
44190;DHT22;29856;52.144;5.430;2022-10-31T11:40:24;16.60;99.90
44190;DHT22;29856;52.144;5.430;2022-10-31T11:42:53;16.60;99.90
44190;DHT22;29856;52.144;5.430;2022-10-31T11:47:50;16.70;99.90
44190;DHT22;29856;52.144;5.430;2022-10-31T11:50:25;16.80;99.90
44190;DHT22;29856;52.144;5.430;2022-10-31T11:52:52;16.80;99.90
44190;DHT22;29856;52.144;5.430;2022-10-31T11:57:57;16.80;99.90
44190;DHT22;29856;52.144;5.430;2022-10-31T12:00:36;16.80;99.90
44190;DHT22;29856;52.144;5.430;2022-10-31T12:03:14;16.70;99.90
44190;DHT22;29856;52.144;5.430;2022-10-31T12:05:42;16.70;99.90
44190;DHT22;29856;52.144;5.430;2022-10-31T12:08:11;16.70;99.90
44190;DHT22;29856;52.144;5.430;2022-10-31T12:13:37;16.60;99.90
44190;DHT22;29856;52.144;5.430;2022-10-31T12:16:27;16.60;99.90
44190;DHT22;29856;52.144;5.430;2022-10-31T12:24:32;16.60;99.90
44190;DHT22;29856;52.144;5.430;2022-10-31T12:30:02;16.70;99.90
44190;DHT22;29856;52.144;5.430;2022-10-31T12:32:35;16.60;99.90
44190;DHT22;29856;52.144;5.430;2022-10-31T12:37:52;16.50;99.90
44190;DHT22;29856;52.144;5.430;2022-10-31T12:40:47;16.60;99.90
44190;DHT22;29856;52.144;5.430;2022-10-31T12:45:53;16.60;99.90
44190;DHT22;29856;52.144;5.430;2022-10-31T12:54:23;16.70;99.90
44190;DHT22;29856;52.144;5.430;2022-10-31T12:59:44;16.80;99.90
44190;DHT22;29856;52.144;5.430;2022-10-31T13:07:21;17.10;99.90
44190;DHT22;29856;52.144;5.430;2022-10-31T13:09:55;17.10;99.90
44190;DHT22;29856;52.144;5.430;2022-10-31T13:12:22;17.20;99.90
44190;DHT22;29856;52.144;5.430;2022-10-31T13:14:54;17.30;99.90
44190;DHT22;29856;52.144;5.430;2022-10-31T13:17:30;17.40;99.90
44190;DHT22;29856;52.144;5.430;2022-10-31T13:20:27;17.40;99.90
44190;DHT22;29856;52.144;5.430;2022-10-31T13:23:03;17.50;99.90
44190;DHT22;29856;52.144;5.430;2022-10-31T13:25:33;17.40;99.90
44190;DHT22;29856;52.144;5.430;2022-10-31T13:28:05;17.40;99.90
44190;DHT22;29856;52.144;5.430;2022-10-31T13:30:38;17.30;99.90
44190;DHT22;29856;52.144;5.430;2022-10-31T13:36:06;17.40;99.90
44190;DHT22;29856;52.144;5.430;2022-10-31T13:44:40;17.50;99.90
44190;DHT22;29856;52.144;5.430;2022-10-31T13:47:23;17.50;99.90
44190;DHT22;29856;52.144;5.430;2022-10-31T13:49:49;17.50;99.90
44190;DHT22;29856;52.144;5.430;2022-10-31T13:52:23;17.50;99.90
44190;DHT22;29856;52.144;5.430;2022-10-31T13:54:50;17.60;99.90
44190;DHT22;29856;52.144;5.430;2022-10-31T13:57:49;17.60;99.90
44190;DHT22;29856;52.144;5.430;2022-10-31T14:02:53;17.60;99.90
44190;DHT22;29856;52.144;5.430;2022-10-31T14:05:33;17.60;99.90
44190;DHT22;29856;52.144;5.430;2022-10-31T14:08:03;17.70;99.90
44190;DHT22;29856;52.144;5.430;2022-10-31T14:10:33;17.60;99.90
44190;DHT22;29856;52.144;5.430;2022-10-31T14:15:59;17.60;99.90
44190;DHT22;29856;52.144;5.430;2022-10-31T14:18:36;17.60;99.90
44190;DHT22;29856;52.144;5.430;2022-10-31T14:21:15;17.60;99.90
44190;DHT22;29856;52.144;5.430;2022-10-31T14:23:40;17.60;99.90
44190;DHT22;29856;52.144;5.430;2022-10-31T14:28:56;17.60;99.90
44190;DHT22;29856;52.144;5.430;2022-10-31T14:31:39;17.70;99.90
44190;DHT22;29856;52.144;5.430;2022-10-31T14:42:19;17.70;99.90
44190;DHT22;29856;52.144;5.430;2022-10-31T14:50:42;17.50;99.90
44190;DHT22;29856;52.144;5.430;2022-10-31T14:53:32;17.50;99.90
44190;DHT22;29856;52.144;5.430;2022-10-31T14:55:59;17.40;99.90
44190;DHT22;29856;52.144;5.430;2022-10-31T15:00:59;17.30;99.90
44190;DHT22;29856;52.144;5.430;2022-10-31T15:03:39;17.30;99.90
44190;DHT22;29856;52.144;5.430;2022-10-31T15:06:11;17.30;99.90
44190;DHT22;29856;52.144;5.430;2022-10-31T15:08:38;17.30;99.90
44190;DHT22;29856;52.144;5.430;2022-10-31T15:11:35;17.30;99.90
44190;DHT22;29856;52.144;5.430;2022-10-31T15:14:17;17.30;99.90
44190;DHT22;29856;52.144;5.430;2022-10-31T15:16:46;17.20;99.90
44190;DHT22;29856;52.144;5.430;2022-10-31T15:19:15;17.20;99.90
44190;DHT22;29856;52.144;5.430;2022-10-31T15:21:44;17.20;99.90
44190;DHT22;29856;52.144;5.430;2022-10-31T15:24:14;17.20;99.90
44190;DHT22;29856;52.144;5.430;2022-10-31T15:26:40;17.20;99.90
44190;DHT22;29856;52.144;5.430;2022-10-31T15:29:14;17.20;99.90
44190;DHT22;29856;52.144;5.430;2022-10-31T15:31:52;17.20;99.90
44190;DHT22;29856;52.144;5.430;2022-10-31T15:34:34;17.20;99.90
44190;DHT22;29856;52.144;5.430;2022-10-31T15:37:01;17.20;99.90
44190;DHT22;29856;52.144;5.430;2022-10-31T15:39:27;17.10;99.90
44190;DHT22;29856;52.144;5.430;2022-10-31T15:41:55;17.10;99.90
44190;DHT22;29856;52.144;5.430;2022-10-31T15:44:32;17.10;99.90
44190;DHT22;29856;52.144;5.430;2022-10-31T15:47:05;17.00;99.90
44190;DHT22;29856;52.144;5.430;2022-10-31T15:49:41;17.00;99.90
44190;DHT22;29856;52.144;5.430;2022-10-31T15:54:50;16.90;99.90
44190;DHT22;29856;52.144;5.430;2022-10-31T15:57:18;16.80;99.90
44190;DHT22;29856;52.144;5.430;2022-10-31T15:59:46;16.70;99.90
44190;DHT22;29856;52.144;5.430;2022-10-31T16:02:14;16.70;99.90
44190;DHT22;29856;52.144;5.430;2022-10-31T16:05:19;16.60;99.90
44190;DHT22;29856;52.144;5.430;2022-10-31T16:07:52;16.60;99.90
44190;DHT22;29856;52.144;5.430;2022-10-31T16:10:25;16.60;99.90
44190;DHT22;29856;52.144;5.430;2022-10-31T16:12:51;16.60;99.90
44190;DHT22;29856;52.144;5.430;2022-10-31T16:15:19;16.60;99.90
44190;DHT22;29856;52.144;5.430;2022-10-31T16:17:48;16.60;99.90
44190;DHT22;29856;52.144;5.430;2022-10-31T16:20:25;16.60;99.90
44190;DHT22;29856;52.144;5.430;2022-10-31T16:22:51;16.60;99.90
44190;DHT22;29856;52.144;5.430;2022-10-31T16:25:36;16.60;99.90
44190;DHT22;29856;52.144;5.430;2022-10-31T16:28:26;16.60;99.90
44190;DHT22;29856;52.144;5.430;2022-10-31T16:30:56;16.60;99.90
44190;DHT22;29856;52.144;5.430;2022-10-31T16:33:34;16.60;99.90
44190;DHT22;29856;52.144;5.430;2022-10-31T16:36:00;16.50;99.90
44190;DHT22;29856;52.144;5.430;2022-10-31T16:38:25;16.50;99.90
44190;DHT22;29856;52.144;5.430;2022-10-31T16:40:52;16.40;99.90
44190;DHT22;29856;52.144;5.430;2022-10-31T16:43:18;16.40;99.90
44190;DHT22;29856;52.144;5.430;2022-10-31T16:45:49;16.40;99.90
44190;DHT22;29856;52.144;5.430;2022-10-31T16:48:18;16.30;99.90
44190;DHT22;29856;52.144;5.430;2022-10-31T16:50:44;16.30;99.90
44190;DHT22;29856;52.144;5.430;2022-10-31T16:53:14;16.20;99.90
44190;DHT22;29856;52.144;5.430;2022-10-31T16:55:50;16.20;99.90
44190;DHT22;29856;52.144;5.430;2022-10-31T16:58:24;16.20;99.90
44190;DHT22;29856;52.144;5.430;2022-10-31T17:00:51;16.20;99.90
44190;DHT22;29856;52.144;5.430;2022-10-31T17:03:17;16.20;99.90
44190;DHT22;29856;52.144;5.430;2022-10-31T17:05:42;16.30;99.90
44190;DHT22;29856;52.144;5.430;2022-10-31T17:08:08;16.20;99.90
44190;DHT22;29856;52.144;5.430;2022-10-31T17:10:34;16.20;99.90
44190;DHT22;29856;52.144;5.430;2022-10-31T17:13:00;16.20;99.90
44190;DHT22;29856;52.144;5.430;2022-10-31T17:15:27;16.30;99.90
44190;DHT22;29856;52.144;5.430;2022-10-31T17:17:55;16.20;99.90
44190;DHT22;29856;52.144;5.430;2022-10-31T17:22:47;16.20;99.90
44190;DHT22;29856;52.144;5.430;2022-10-31T17:25:16;16.20;99.90
44190;DHT22;29856;52.144;5.430;2022-10-31T17:27:42;16.20;99.90
44190;DHT22;29856;52.144;5.430;2022-10-31T17:30:08;16.20;99.90
44190;DHT22;29856;52.144;5.430;2022-10-31T17:32:35;16.10;99.90
44190;DHT22;29856;52.144;5.430;2022-10-31T17:35:01;16.10;99.90
44190;DHT22;29856;52.144;5.430;2022-10-31T17:37:26;16.00;99.90
44190;DHT22;29856;52.144;5.430;2022-10-31T17:39:51;15.90;99.90
44190;DHT22;29856;52.144;5.430;2022-10-31T17:42:17;15.90;99.90
44190;DHT22;29856;52.144;5.430;2022-10-31T17:44:42;15.90;99.90